sensor_id;sensor_type;location;lat;lon;timestamp;P1;durP1;ratioP1;P2;durP2;ratioP2
20859;SDS011;10590;48.154;11.514;2024-03-17T00:00:28;5.07;;;4.57;;
20859;SDS011;10590;48.154;11.514;2024-03-17T00:05:56;4.60;;;4.03;;
20859;SDS011;10590;48.154;11.514;2024-03-17T00:11:18;5.07;;;4.67;;
20859;SDS011;10590;48.154;11.514;2024-03-17T00:16:39;4.93;;;4.53;;
20859;SDS011;10590;48.154;11.514;2024-03-17T00:22:03;5.60;;;4.17;;
20859;SDS011;10590;48.154;11.514;2024-03-17T00:27:25;6.47;;;5.13;;
20859;SDS011;10590;48.154;11.514;2024-03-17T00:32:47;5.57;;;4.60;;
20859;SDS011;10590;48.154;11.514;2024-03-17T00:38:10;5.83;;;4.93;;
20859;SDS011;10590;48.154;11.514;2024-03-17T00:43:32;5.73;;;4.40;;
20859;SDS011;10590;48.154;11.514;2024-03-17T00:48:54;5.30;;;4.40;;
20859;SDS011;10590;48.154;11.514;2024-03-17T00:54:17;6.43;;;5.23;;
20859;SDS011;10590;48.154;11.514;2024-03-17T00:59:39;5.97;;;4.80;;
20859;SDS011;10590;48.154;11.514;2024-03-17T01:05:02;5.30;;;4.70;;
20859;SDS011;10590;48.154;11.514;2024-03-17T01:10:26;5.93;;;4.90;;
20859;SDS011;10590;48.154;11.514;2024-03-17T01:15:51;5.20;;;4.77;;
20859;SDS011;10590;48.154;11.514;2024-03-17T01:21:13;6.13;;;5.03;;
20859;SDS011;10590;48.154;11.514;2024-03-17T01:26:36;6.70;;;6.10;;
20859;SDS011;10590;48.154;11.514;2024-03-17T01:31:57;8.63;;;5.87;;
20859;SDS011;10590;48.154;11.514;2024-03-17T01:37:20;8.03;;;5.37;;
20859;SDS011;10590;48.154;11.514;2024-03-17T01:42:43;6.53;;;5.83;;
20859;SDS011;10590;48.154;11.514;2024-03-17T01:48:04;10.07;;;6.37;;
20859;SDS011;10590;48.154;11.514;2024-03-17T01:53:35;9.20;;;6.20;;
20859;SDS011;10590;48.154;11.514;2024-03-17T01:58:58;9.17;;;5.80;;
20859;SDS011;10590;48.154;11.514;2024-03-17T02:04:20;9.20;;;6.67;;
20859;SDS011;10590;48.154;11.514;2024-03-17T02:09:42;8.83;;;7.33;;
20859;SDS011;10590;48.154;11.514;2024-03-17T02:15:06;7.10;;;5.97;;
20859;SDS011;10590;48.154;11.514;2024-03-17T02:20:28;8.17;;;6.60;;
20859;SDS011;10590;48.154;11.514;2024-03-17T02:26:05;7.37;;;6.07;;
20859;SDS011;10590;48.154;11.514;2024-03-17T02:31:27;13.90;;;6.50;;
20859;SDS011;10590;48.154;11.514;2024-03-17T02:36:48;6.70;;;6.07;;
20859;SDS011;10590;48.154;11.514;2024-03-17T02:42:11;9.40;;;5.87;;
20859;SDS011;10590;48.154;11.514;2024-03-17T02:47:33;8.40;;;5.77;;
20859;SDS011;10590;48.154;11.514;2024-03-17T02:52:54;8.13;;;6.30;;
20859;SDS011;10590;48.154;11.514;2024-03-17T02:58:17;6.47;;;5.53;;
20859;SDS011;10590;48.154;11.514;2024-03-17T03:03:39;5.80;;;5.07;;
20859;SDS011;10590;48.154;11.514;2024-03-17T03:09:01;5.93;;;5.33;;
20859;SDS011;10590;48.154;11.514;2024-03-17T03:14:26;6.80;;;6.07;;
20859;SDS011;10590;48.154;11.514;2024-03-17T03:19:48;7.10;;;6.20;;
20859;SDS011;10590;48.154;11.514;2024-03-17T03:25:10;7.67;;;6.13;;
20859;SDS011;10590;48.154;11.514;2024-03-17T03:30:36;6.30;;;5.57;;
20859;SDS011;10590;48.154;11.514;2024-03-17T03:35:58;8.07;;;5.97;;
20859;SDS011;10590;48.154;11.514;2024-03-17T03:41:20;7.57;;;6.50;;
20859;SDS011;10590;48.154;11.514;2024-03-17T03:46:45;7.13;;;6.43;;
20859;SDS011;10590;48.154;11.514;2024-03-17T03:52:07;8.87;;;6.80;;
20859;SDS011;10590;48.154;11.514;2024-03-17T03:57:29;7.27;;;5.97;;
20859;SDS011;10590;48.154;11.514;2024-03-17T04:02:53;8.67;;;6.40;;
20859;SDS011;10590;48.154;11.514;2024-03-17T04:08:15;8.20;;;6.43;;
20859;SDS011;10590;48.154;11.514;2024-03-17T04:13:36;8.37;;;7.00;;
20859;SDS011;10590;48.154;11.514;2024-03-17T04:18:59;8.90;;;6.40;;
20859;SDS011;10590;48.154;11.514;2024-03-17T04:24:21;9.70;;;6.17;;
20859;SDS011;10590;48.154;11.514;2024-03-17T04:29:42;10.33;;;7.27;;
20859;SDS011;10590;48.154;11.514;2024-03-17T04:35:06;9.20;;;6.90;;
20859;SDS011;10590;48.154;11.514;2024-03-17T04:40:28;7.87;;;6.43;;
20859;SDS011;10590;48.154;11.514;2024-03-17T04:45:58;7.37;;;6.53;;
20859;SDS011;10590;48.154;11.514;2024-03-17T04:51:22;10.50;;;7.37;;
20859;SDS011;10590;48.154;11.514;2024-03-17T04:56:43;8.10;;;6.77;;
20859;SDS011;10590;48.154;11.514;2024-03-17T05:02:05;9.43;;;6.43;;
20859;SDS011;10590;48.154;11.514;2024-03-17T05:07:29;7.57;;;6.67;;
20859;SDS011;10590;48.154;11.514;2024-03-17T05:12:50;8.37;;;6.30;;
20859;SDS011;10590;48.154;11.514;2024-03-17T05:18:12;8.67;;;6.60;;
20859;SDS011;10590;48.154;11.514;2024-03-17T05:23:35;8.67;;;7.47;;
20859;SDS011;10590;48.154;11.514;2024-03-17T05:28:57;10.07;;;7.90;;
20859;SDS011;10590;48.154;11.514;2024-03-17T05:34:19;11.80;;;8.33;;
20859;SDS011;10590;48.154;11.514;2024-03-17T05:39:42;11.43;;;8.30;;
20859;SDS011;10590;48.154;11.514;2024-03-17T05:45:04;9.73;;;8.23;;
20859;SDS011;10590;48.154;11.514;2024-03-17T05:50:26;12.50;;;8.60;;
20859;SDS011;10590;48.154;11.514;2024-03-17T05:55:49;9.97;;;8.10;;
20859;SDS011;10590;48.154;11.514;2024-03-17T06:01:11;10.90;;;8.17;;
20859;SDS011;10590;48.154;11.514;2024-03-17T06:06:33;13.20;;;8.80;;
20859;SDS011;10590;48.154;11.514;2024-03-17T06:11:56;10.33;;;8.27;;
20859;SDS011;10590;48.154;11.514;2024-03-17T06:17:17;10.23;;;8.50;;
20859;SDS011;10590;48.154;11.514;2024-03-17T06:22:39;10.87;;;8.93;;
20859;SDS011;10590;48.154;11.514;2024-03-17T06:28:02;9.67;;;7.97;;
20859;SDS011;10590;48.154;11.514;2024-03-17T06:33:24;10.80;;;8.17;;
20859;SDS011;10590;48.154;11.514;2024-03-17T06:38:46;9.23;;;7.90;;
20859;SDS011;10590;48.154;11.514;2024-03-17T06:44:10;10.53;;;7.80;;
20859;SDS011;10590;48.154;11.514;2024-03-17T06:49:32;7.07;;;6.13;;
20859;SDS011;10590;48.154;11.514;2024-03-17T06:54:54;9.13;;;6.10;;
20859;SDS011;10590;48.154;11.514;2024-03-17T07:00:17;5.80;;;5.17;;
20859;SDS011;10590;48.154;11.514;2024-03-17T07:05:50;5.73;;;4.60;;
20859;SDS011;10590;48.154;11.514;2024-03-17T07:11:13;5.33;;;4.83;;
20859;SDS011;10590;48.154;11.514;2024-03-17T07:16:36;5.90;;;4.90;;
20859;SDS011;10590;48.154;11.514;2024-03-17T07:21:57;5.23;;;4.73;;
20859;SDS011;10590;48.154;11.514;2024-03-17T07:27:19;7.17;;;4.37;;
20859;SDS011;10590;48.154;11.514;2024-03-17T07:32:42;5.17;;;4.63;;
20859;SDS011;10590;48.154;11.514;2024-03-17T07:38:03;5.30;;;4.70;;
20859;SDS011;10590;48.154;11.514;2024-03-17T07:43:25;4.63;;;4.23;;
20859;SDS011;10590;48.154;11.514;2024-03-17T07:48:49;5.57;;;5.00;;
20859;SDS011;10590;48.154;11.514;2024-03-17T07:54:11;5.73;;;4.00;;
20859;SDS011;10590;48.154;11.514;2024-03-17T07:59:33;5.00;;;4.50;;
20859;SDS011;10590;48.154;11.514;2024-03-17T08:04:56;4.47;;;4.07;;
20859;SDS011;10590;48.154;11.514;2024-03-17T08:10:18;5.13;;;4.33;;
20859;SDS011;10590;48.154;11.514;2024-03-17T08:15:41;4.07;;;3.63;;
20859;SDS011;10590;48.154;11.514;2024-03-17T08:21:05;5.60;;;4.40;;
20859;SDS011;10590;48.154;11.514;2024-03-17T08:26:26;6.43;;;4.37;;
20859;SDS011;10590;48.154;11.514;2024-03-17T08:31:48;3.53;;;3.23;;
20859;SDS011;10590;48.154;11.514;2024-03-17T08:37:11;3.77;;;3.40;;
20859;SDS011;10590;48.154;11.514;2024-03-17T08:42:32;3.63;;;3.10;;
20859;SDS011;10590;48.154;11.514;2024-03-17T08:47:54;3.87;;;3.57;;
20859;SDS011;10590;48.154;11.514;2024-03-17T08:53:17;4.53;;;3.47;;
20859;SDS011;10590;48.154;11.514;2024-03-17T08:58:39;4.37;;;3.50;;
20859;SDS011;10590;48.154;11.514;2024-03-17T09:04:01;4.00;;;3.20;;
20859;SDS011;10590;48.154;11.514;2024-03-17T09:09:24;3.23;;;3.03;;
20859;SDS011;10590;48.154;11.514;2024-03-17T09:14:46;3.00;;;2.80;;
20859;SDS011;10590;48.154;11.514;2024-03-17T09:20:09;2.57;;;2.33;;
20859;SDS011;10590;48.154;11.514;2024-03-17T09:25:36;2.67;;;2.23;;
20859;SDS011;10590;48.154;11.514;2024-03-17T09:30:58;2.67;;;2.40;;
20859;SDS011;10590;48.154;11.514;2024-03-17T09:36:20;2.77;;;2.53;;
20859;SDS011;10590;48.154;11.514;2024-03-17T09:41:44;2.10;;;2.00;;
20859;SDS011;10590;48.154;11.514;2024-03-17T09:47:07;2.80;;;2.20;;
20859;SDS011;10590;48.154;11.514;2024-03-17T09:52:36;2.20;;;2.00;;
20859;SDS011;10590;48.154;11.514;2024-03-17T09:58:03;2.50;;;2.30;;
20859;SDS011;10590;48.154;11.514;2024-03-17T10:03:39;1.87;;;1.63;;
20859;SDS011;10590;48.154;11.514;2024-03-17T10:09:02;3.67;;;2.20;;
20859;SDS011;10590;48.154;11.514;2024-03-17T10:14:31;2.20;;;1.90;;
20859;SDS011;10590;48.154;11.514;2024-03-17T10:19:53;3.80;;;1.80;;
20859;SDS011;10590;48.154;11.514;2024-03-17T10:25:32;3.83;;;1.63;;
20859;SDS011;10590;48.154;11.514;2024-03-17T10:30:58;3.83;;;1.80;;
20859;SDS011;10590;48.154;11.514;2024-03-17T10:36:24;4.50;;;1.70;;
20859;SDS011;10590;48.154;11.514;2024-03-17T10:41:45;3.23;;;1.80;;
20859;SDS011;10590;48.154;11.514;2024-03-17T10:47:13;3.43;;;1.47;;
20859;SDS011;10590;48.154;11.514;2024-03-17T10:52:43;2.77;;;1.17;;
20859;SDS011;10590;48.154;11.514;2024-03-17T10:58:13;2.07;;;1.10;;
20859;SDS011;10590;48.154;11.514;2024-03-17T11:03:45;2.40;;;1.27;;
20859;SDS011;10590;48.154;11.514;2024-03-17T11:09:13;3.23;;;1.50;;
20859;SDS011;10590;48.154;11.514;2024-03-17T11:14:36;2.67;;;1.40;;
20859;SDS011;10590;48.154;11.514;2024-03-17T11:20:09;2.40;;;1.13;;
20859;SDS011;10590;48.154;11.514;2024-03-17T11:25:36;5.33;;;1.50;;
20859;SDS011;10590;48.154;11.514;2024-03-17T11:30:58;1.97;;;1.10;;
20859;SDS011;10590;48.154;11.514;2024-03-17T11:36:34;3.73;;;1.43;;
20859;SDS011;10590;48.154;11.514;2024-03-17T11:42:04;2.30;;;1.13;;
20859;SDS011;10590;48.154;11.514;2024-03-17T11:47:34;1.70;;;1.10;;
20859;SDS011;10590;48.154;11.514;2024-03-17T11:52:59;3.20;;;1.30;;
20859;SDS011;10590;48.154;11.514;2024-03-17T11:58:20;2.53;;;1.43;;
20859;SDS011;10590;48.154;11.514;2024-03-17T12:03:42;3.33;;;1.20;;
20859;SDS011;10590;48.154;11.514;2024-03-17T12:09:09;3.03;;;1.23;;
20859;SDS011;10590;48.154;11.514;2024-03-17T12:14:32;3.53;;;1.40;;
20859;SDS011;10590;48.154;11.514;2024-03-17T12:19:54;2.47;;;1.37;;
20859;SDS011;10590;48.154;11.514;2024-03-17T12:25:19;2.27;;;1.30;;
20859;SDS011;10590;48.154;11.514;2024-03-17T12:30:43;2.77;;;1.40;;
20859;SDS011;10590;48.154;11.514;2024-03-17T12:36:06;3.73;;;1.73;;
20859;SDS011;10590;48.154;11.514;2024-03-17T12:41:29;2.00;;;1.43;;
20859;SDS011;10590;48.154;11.514;2024-03-17T12:46:54;3.83;;;1.53;;
20859;SDS011;10590;48.154;11.514;2024-03-17T12:52:17;2.10;;;1.53;;
20859;SDS011;10590;48.154;11.514;2024-03-17T12:57:41;2.83;;;1.27;;
20859;SDS011;10590;48.154;11.514;2024-03-17T13:03:23;2.07;;;1.20;;
20859;SDS011;10590;48.154;11.514;2024-03-17T13:08:46;2.13;;;1.40;;
20859;SDS011;10590;48.154;11.514;2024-03-17T13:14:09;2.93;;;1.30;;
20859;SDS011;10590;48.154;11.514;2024-03-17T13:19:35;2.23;;;1.50;;
20859;SDS011;10590;48.154;11.514;2024-03-17T13:24:57;2.27;;;1.60;;
20859;SDS011;10590;48.154;11.514;2024-03-17T13:30:21;2.67;;;1.73;;
20859;SDS011;10590;48.154;11.514;2024-03-17T13:35:46;2.43;;;1.27;;
20859;SDS011;10590;48.154;11.514;2024-03-17T13:41:07;2.10;;;1.20;;
20859;SDS011;10590;48.154;11.514;2024-03-17T13:46:31;2.10;;;1.20;;
20859;SDS011;10590;48.154;11.514;2024-03-17T13:51:53;5.43;;;1.57;;
20859;SDS011;10590;48.154;11.514;2024-03-17T13:57:14;2.73;;;1.97;;
20859;SDS011;10590;48.154;11.514;2024-03-17T14:02:38;2.40;;;1.50;;
20859;SDS011;10590;48.154;11.514;2024-03-17T14:07:59;2.53;;;1.20;;
20859;SDS011;10590;48.154;11.514;2024-03-17T14:13:21;2.50;;;1.40;;
20859;SDS011;10590;48.154;11.514;2024-03-17T14:18:44;3.73;;;1.83;;
20859;SDS011;10590;48.154;11.514;2024-03-17T14:24:06;4.13;;;1.50;;
20859;SDS011;10590;48.154;11.514;2024-03-17T14:29:29;4.53;;;1.67;;
20859;SDS011;10590;48.154;11.514;2024-03-17T14:34:52;2.73;;;1.50;;
20859;SDS011;10590;48.154;11.514;2024-03-17T14:40:14;5.80;;;1.50;;
20859;SDS011;10590;48.154;11.514;2024-03-17T14:45:41;3.93;;;1.60;;
20859;SDS011;10590;48.154;11.514;2024-03-17T14:51:04;4.80;;;1.50;;
20859;SDS011;10590;48.154;11.514;2024-03-17T14:56:26;3.80;;;1.40;;
20859;SDS011;10590;48.154;11.514;2024-03-17T15:01:48;4.97;;;1.50;;
20859;SDS011;10590;48.154;11.514;2024-03-17T15:07:11;2.30;;;1.30;;
20859;SDS011;10590;48.154;11.514;2024-03-17T15:12:33;5.13;;;1.53;;
20859;SDS011;10590;48.154;11.514;2024-03-17T15:17:54;2.43;;;1.33;;
20859;SDS011;10590;48.154;11.514;2024-03-17T15:23:17;2.87;;;1.50;;
20859;SDS011;10590;48.154;11.514;2024-03-17T15:28:39;6.53;;;2.20;;
20859;SDS011;10590;48.154;11.514;2024-03-17T15:34:02;4.17;;;1.57;;
20859;SDS011;10590;48.154;11.514;2024-03-17T15:39:25;5.20;;;1.53;;
20859;SDS011;10590;48.154;11.514;2024-03-17T15:44:48;4.87;;;1.60;;
20859;SDS011;10590;48.154;11.514;2024-03-17T15:50:11;4.87;;;1.80;;
20859;SDS011;10590;48.154;11.514;2024-03-17T15:55:35;3.63;;;1.50;;
20859;SDS011;10590;48.154;11.514;2024-03-17T16:00:57;42.90;;;14.03;;
20859;SDS011;10590;48.154;11.514;2024-03-17T16:06:19;17.13;;;6.23;;
20859;SDS011;10590;48.154;11.514;2024-03-17T16:11:43;3.93;;;2.10;;
20859;SDS011;10590;48.154;11.514;2024-03-17T16:17:06;4.40;;;1.73;;
20859;SDS011;10590;48.154;11.514;2024-03-17T16:22:28;5.80;;;2.07;;
20859;SDS011;10590;48.154;11.514;2024-03-17T16:27:52;2.60;;;1.60;;
20859;SDS011;10590;48.154;11.514;2024-03-17T16:33:14;4.80;;;1.70;;
20859;SDS011;10590;48.154;11.514;2024-03-17T16:38:37;8.90;;;2.10;;
20859;SDS011;10590;48.154;11.514;2024-03-17T16:44:00;4.17;;;2.37;;
20859;SDS011;10590;48.154;11.514;2024-03-17T16:49:26;2.43;;;1.87;;
20859;SDS011;10590;48.154;11.514;2024-03-17T16:54:48;3.93;;;1.70;;
20859;SDS011;10590;48.154;11.514;2024-03-17T17:00:11;3.97;;;2.00;;
20859;SDS011;10590;48.154;11.514;2024-03-17T17:05:34;6.57;;;2.37;;
20859;SDS011;10590;48.154;11.514;2024-03-17T17:10:56;3.50;;;1.97;;
20859;SDS011;10590;48.154;11.514;2024-03-17T17:16:19;5.17;;;2.27;;
20859;SDS011;10590;48.154;11.514;2024-03-17T17:21:41;3.67;;;2.13;;
20859;SDS011;10590;48.154;11.514;2024-03-17T17:27:04;4.53;;;2.57;;
20859;SDS011;10590;48.154;11.514;2024-03-17T17:32:30;4.03;;;2.43;;
20859;SDS011;10590;48.154;11.514;2024-03-17T17:37:53;4.17;;;2.43;;
20859;SDS011;10590;48.154;11.514;2024-03-17T17:43:15;9.00;;;2.50;;
20859;SDS011;10590;48.154;11.514;2024-03-17T17:48:38;4.53;;;3.03;;
20859;SDS011;10590;48.154;11.514;2024-03-17T17:54:00;5.43;;;3.00;;
20859;SDS011;10590;48.154;11.514;2024-03-17T17:59:23;5.73;;;3.27;;
20859;SDS011;10590;48.154;11.514;2024-03-17T18:04:46;4.73;;;3.30;;
20859;SDS011;10590;48.154;11.514;2024-03-17T18:10:07;5.13;;;2.90;;
20859;SDS011;10590;48.154;11.514;2024-03-17T18:15:30;5.80;;;3.20;;
20859;SDS011;10590;48.154;11.514;2024-03-17T18:20:53;8.93;;;3.80;;
20859;SDS011;10590;48.154;11.514;2024-03-17T18:26:16;4.77;;;3.70;;
20859;SDS011;10590;48.154;11.514;2024-03-17T18:31:37;6.73;;;3.90;;
20859;SDS011;10590;48.154;11.514;2024-03-17T18:37:00;3.87;;;3.50;;
20859;SDS011;10590;48.154;11.514;2024-03-17T18:42:23;5.73;;;4.10;;
20859;SDS011;10590;48.154;11.514;2024-03-17T18:47:45;7.00;;;3.83;;
20859;SDS011;10590;48.154;11.514;2024-03-17T18:53:09;4.27;;;3.57;;
20859;SDS011;10590;48.154;11.514;2024-03-17T18:58:31;5.67;;;3.87;;
20859;SDS011;10590;48.154;11.514;2024-03-17T19:03:53;6.60;;;4.13;;
20859;SDS011;10590;48.154;11.514;2024-03-17T19:09:16;6.13;;;4.00;;
20859;SDS011;10590;48.154;11.514;2024-03-17T19:14:38;5.97;;;4.40;;
20859;SDS011;10590;48.154;11.514;2024-03-17T19:19:59;6.07;;;4.50;;
20859;SDS011;10590;48.154;11.514;2024-03-17T19:25:22;7.27;;;5.00;;
20859;SDS011;10590;48.154;11.514;2024-03-17T19:30:53;7.80;;;4.53;;
20859;SDS011;10590;48.154;11.514;2024-03-17T19:36:15;7.23;;;5.47;;
20859;SDS011;10590;48.154;11.514;2024-03-17T19:41:39;7.77;;;4.97;;
20859;SDS011;10590;48.154;11.514;2024-03-17T19:47:01;8.00;;;5.13;;
20859;SDS011;10590;48.154;11.514;2024-03-17T19:52:22;9.37;;;6.10;;
20859;SDS011;10590;48.154;11.514;2024-03-17T19:57:45;8.53;;;5.17;;
20859;SDS011;10590;48.154;11.514;2024-03-17T20:03:08;8.23;;;4.97;;
20859;SDS011;10590;48.154;11.514;2024-03-17T20:08:30;9.90;;;5.40;;
20859;SDS011;10590;48.154;11.514;2024-03-17T20:13:55;7.17;;;5.17;;
20859;SDS011;10590;48.154;11.514;2024-03-17T20:19:17;9.00;;;5.13;;
20859;SDS011;10590;48.154;11.514;2024-03-17T20:24:40;8.03;;;5.07;;
20859;SDS011;10590;48.154;11.514;2024-03-17T20:30:07;7.43;;;5.13;;
20859;SDS011;10590;48.154;11.514;2024-03-17T20:35:36;8.40;;;5.50;;
20859;SDS011;10590;48.154;11.514;2024-03-17T20:40:58;8.43;;;5.53;;
20859;SDS011;10590;48.154;11.514;2024-03-17T20:46:28;8.10;;;6.40;;
20859;SDS011;10590;48.154;11.514;2024-03-17T20:52:08;10.90;;;5.77;;
20859;SDS011;10590;48.154;11.514;2024-03-17T20:57:32;10.77;;;5.73;;
20859;SDS011;10590;48.154;11.514;2024-03-17T21:02:59;8.90;;;6.13;;
20859;SDS011;10590;48.154;11.514;2024-03-17T21:08:24;6.77;;;6.03;;
20859;SDS011;10590;48.154;11.514;2024-03-17T21:13:47;8.80;;;6.80;;
20859;SDS011;10590;48.154;11.514;2024-03-17T21:19:10;7.60;;;6.00;;
20859;SDS011;10590;48.154;11.514;2024-03-17T21:30:48;9.13;;;6.60;;
20859;SDS011;10590;48.154;11.514;2024-03-17T21:36:11;10.73;;;6.60;;
20859;SDS011;10590;48.154;11.514;2024-03-17T21:41:34;7.67;;;5.60;;
20859;SDS011;10590;48.154;11.514;2024-03-17T21:46:58;7.80;;;5.77;;
20859;SDS011;10590;48.154;11.514;2024-03-17T21:52:21;7.57;;;5.37;;
20859;SDS011;10590;48.154;11.514;2024-03-17T21:57:44;11.13;;;5.27;;
20859;SDS011;10590;48.154;11.514;2024-03-17T22:03:06;8.63;;;6.10;;
20859;SDS011;10590;48.154;11.514;2024-03-17T22:08:30;10.30;;;5.73;;
20859;SDS011;10590;48.154;11.514;2024-03-17T22:13:52;14.80;;;5.70;;
20859;SDS011;10590;48.154;11.514;2024-03-17T22:19:14;8.70;;;5.37;;
20859;SDS011;10590;48.154;11.514;2024-03-17T22:24:37;9.40;;;5.83;;
20859;SDS011;10590;48.154;11.514;2024-03-17T22:30:01;11.47;;;5.83;;
20859;SDS011;10590;48.154;11.514;2024-03-17T22:35:24;10.20;;;5.93;;
20859;SDS011;10590;48.154;11.514;2024-03-17T22:40:52;6.27;;;5.40;;
20859;SDS011;10590;48.154;11.514;2024-03-17T22:46:15;10.80;;;7.20;;
20859;SDS011;10590;48.154;11.514;2024-03-17T22:51:36;8.57;;;5.50;;
20859;SDS011;10590;48.154;11.514;2024-03-17T22:56:59;8.80;;;5.20;;
20859;SDS011;10590;48.154;11.514;2024-03-17T23:02:22;9.40;;;5.57;;
20859;SDS011;10590;48.154;11.514;2024-03-17T23:07:44;9.27;;;4.60;;
20859;SDS011;10590;48.154;11.514;2024-03-17T23:13:07;8.70;;;4.30;;
20859;SDS011;10590;48.154;11.514;2024-03-17T23:18:29;8.67;;;5.10;;
20859;SDS011;10590;48.154;11.514;2024-03-17T23:23:51;6.30;;;3.60;;
20859;SDS011;10590;48.154;11.514;2024-03-17T23:29:14;6.60;;;3.37;;
20859;SDS011;10590;48.154;11.514;2024-03-17T23:34:36;6.10;;;4.00;;
20859;SDS011;10590;48.154;11.514;2024-03-17T23:39:59;6.47;;;3.67;;
20859;SDS011;10590;48.154;11.514;2024-03-17T23:45:23;5.40;;;3.50;;
20859;SDS011;10590;48.154;11.514;2024-03-17T23:50:46;5.73;;;3.70;;
20859;SDS011;10590;48.154;11.514;2024-03-17T23:56:07;3.80;;;3.37;;
